createdAt,value
2018-03-07T00:00:22.077Z,39.1
2018-03-07T00:01:23.744Z,35.7
2018-03-07T00:02:25.407Z,36.0
2018-03-07T00:03:27.055Z,35.9
2018-03-07T00:04:28.752Z,41.4
2018-03-07T00:05:30.343Z,37.7
2018-03-07T00:06:31.989Z,34.0
2018-03-07T00:07:33.631Z,41.6
2018-03-07T00:08:35.292Z,32.5
2018-03-07T00:09:36.933Z,41.3
2018-03-07T00:10:38.610Z,43.3
2018-03-07T00:11:40.303Z,40.1
2018-03-07T00:12:41.949Z,39.3
2018-03-07T00:13:43.597Z,38.3
2018-03-07T00:14:45.241Z,36.7
2018-03-07T00:15:46.883Z,37.1
2018-03-07T00:16:48.534Z,37.8
2018-03-07T00:17:50.188Z,36.7
2018-03-07T00:18:51.823Z,46.2
2018-03-07T00:19:53.471Z,35.0
2018-03-07T00:20:55.116Z,64.2
2018-03-07T00:21:56.758Z,96.1
2018-03-07T00:22:58.403Z,88.4
2018-03-07T00:24:00.053Z,56.5
2018-03-07T00:25:01.691Z,35.1
2018-03-07T00:26:03.339Z,37.7
2018-03-07T00:27:04.986Z,66.9
2018-03-07T00:28:06.634Z,52.1
2018-03-07T00:29:08.297Z,31.5
2018-03-07T00:30:09.933Z,32.4
2018-03-07T00:31:11.579Z,33.0
2018-03-07T00:32:13.217Z,33.0
2018-03-07T00:33:14.859Z,30.9
2018-03-07T00:34:16.509Z,31.2
2018-03-07T00:35:18.186Z,31.0
2018-03-07T00:36:19.832Z,36.2
2018-03-07T00:37:21.477Z,33.7
2018-03-07T00:38:23.118Z,35.1
2018-03-07T00:39:24.767Z,212.0
2018-03-07T00:40:26.419Z,127.8
2018-03-07T00:41:28.066Z,105.1
2018-03-07T00:42:29.714Z,131.7
2018-03-07T00:43:31.359Z,79.8
2018-03-07T00:44:33.016Z,89.8
2018-03-07T00:45:34.662Z,70.6
2018-03-07T00:46:36.301Z,64.1
2018-03-07T00:47:37.997Z,34.3
2018-03-07T00:48:39.650Z,55.7
2018-03-07T00:49:41.291Z,58.4
2018-03-07T00:50:42.933Z,55.0
2018-03-07T00:51:44.581Z,35.7
2018-03-07T00:52:46.227Z,47.2
2018-03-07T00:53:47.869Z,325.9
2018-03-07T00:54:49.521Z,77.8
2018-03-07T00:55:51.160Z,35.9
2018-03-07T00:56:52.815Z,36.2
2018-03-07T00:57:54.523Z,35.5
2018-03-07T00:58:56.159Z,57.2
2018-03-07T00:59:57.807Z,38.5
2018-03-07T01:00:59.456Z,45.4
2018-03-07T01:02:01.094Z,71.5
2018-03-07T01:03:02.745Z,60.9
2018-03-07T01:04:04.392Z,217.2
2018-03-07T01:05:06.035Z,60.9
2018-03-07T01:06:07.683Z,33.8
2018-03-07T01:07:09.331Z,34.2
2018-03-07T01:08:10.971Z,33.1
2018-03-07T01:09:12.617Z,35.7
2018-03-07T01:10:14.265Z,33.5
2018-03-07T01:11:15.918Z,34.3
2018-03-07T01:12:17.577Z,32.3
2018-03-07T01:13:19.220Z,33.7
2018-03-07T01:14:20.873Z,32.8
2018-03-07T01:15:22.517Z,36.7
2018-03-07T01:16:24.170Z,35.2
2018-03-07T01:17:25.814Z,33.3
2018-03-07T01:18:27.454Z,43.8
2018-03-07T01:19:29.105Z,33.5
2018-03-07T01:20:30.751Z,30.7
2018-03-07T01:21:32.400Z,31.8
2018-03-07T01:22:34.049Z,33.6
2018-03-07T01:23:35.694Z,33.3
2018-03-07T01:24:37.350Z,31.8
2018-03-07T01:25:38.997Z,34.3
2018-03-07T01:26:40.640Z,30.9
2018-03-07T01:27:42.292Z,31.0
2018-03-07T01:28:44.012Z,35.5
2018-03-07T01:29:45.657Z,33.1
2018-03-07T01:30:47.313Z,33.4
2018-03-07T01:31:48.963Z,33.1
2018-03-07T01:32:50.611Z,31.4
2018-03-07T01:33:52.256Z,31.2
2018-03-07T01:34:53.897Z,31.7
2018-03-07T01:35:55.548Z,33.1
2018-03-07T01:36:57.197Z,35.2
2018-03-07T01:37:58.851Z,33.7
2018-03-07T01:39:00.492Z,31.8
2018-03-07T01:40:02.153Z,33.3
2018-03-07T01:41:03.801Z,32.5
2018-03-07T01:42:05.448Z,32.5
2018-03-07T01:43:07.082Z,34.6
2018-03-07T01:44:08.729Z,31.8
2018-03-07T01:45:10.396Z,33.7
2018-03-07T01:46:12.049Z,32.8
2018-03-07T01:47:13.694Z,36.5
2018-03-07T01:48:15.336Z,32.5
2018-03-07T01:49:16.992Z,32.3
2018-03-07T01:50:18.641Z,33.6
2018-03-07T01:51:20.304Z,34.2
2018-03-07T01:52:21.947Z,34.9
2018-03-07T01:53:23.600Z,32.6
2018-03-07T01:54:25.250Z,31.1
2018-03-07T01:55:26.903Z,30.7
2018-03-07T01:56:28.571Z,39.0
2018-03-07T01:57:30.218Z,37.6
2018-03-07T01:58:31.857Z,35.9
2018-03-07T01:59:33.518Z,33.0
2018-03-07T02:00:35.173Z,34.2
2018-03-07T02:01:36.828Z,36.4
2018-03-07T02:02:38.466Z,35.1
2018-03-07T02:03:40.111Z,35.1
2018-03-07T02:04:41.760Z,34.6
2018-03-07T02:05:43.412Z,34.2
2018-03-07T02:06:45.060Z,32.1
2018-03-07T02:07:46.714Z,35.1
2018-03-07T02:08:48.368Z,35.0
2018-03-07T02:09:50.007Z,32.9
2018-03-07T02:10:51.664Z,33.4
2018-03-07T02:11:53.321Z,36.1
2018-03-07T02:12:54.967Z,34.3
2018-03-07T02:13:56.618Z,34.1
2018-03-07T02:14:58.274Z,29.2
2018-03-07T02:16:00.042Z,28.7
2018-03-07T02:17:01.689Z,33.9
2018-03-07T02:18:03.341Z,46.3
2018-03-07T02:19:04.987Z,53.9
2018-03-07T02:20:06.685Z,35.2
2018-03-07T02:21:08.280Z,46.6
2018-03-07T02:22:09.936Z,32.3
2018-03-07T02:23:11.587Z,31.9
2018-03-07T02:24:13.234Z,34.3
2018-03-07T02:25:14.882Z,31.5
2018-03-07T02:26:16.527Z,32.6
2018-03-07T02:27:18.178Z,32.5
2018-03-07T02:28:19.836Z,28.6
2018-03-07T02:29:21.481Z,34.6
2018-03-07T02:30:23.143Z,28.8
2018-03-07T02:31:25.059Z,35.0
2018-03-07T02:32:26.711Z,31.2
2018-03-07T02:33:28.366Z,31.0
2018-03-07T02:34:30.010Z,30.6
2018-03-07T02:35:32.177Z,30.0
2018-03-07T02:36:33.835Z,31.4
2018-03-07T02:37:35.680Z,30.3
2018-03-07T02:38:37.328Z,35.2
2018-03-07T02:39:38.982Z,30.4
2018-03-07T02:40:40.631Z,30.7
2018-03-07T02:41:42.279Z,35.9
2018-03-07T02:42:43.928Z,31.2
2018-03-07T02:43:45.572Z,35.2
2018-03-07T02:44:47.245Z,30.3
2018-03-07T02:45:48.894Z,32.1
2018-03-07T02:46:50.543Z,31.2
2018-03-07T02:47:52.192Z,34.7
2018-03-07T02:48:53.859Z,35.1
2018-03-07T02:49:55.512Z,34.4
2018-03-07T02:50:57.192Z,37.0
2018-03-07T02:51:58.844Z,36.1
2018-03-07T02:53:00.492Z,33.4
2018-03-07T02:54:02.144Z,32.2
2018-03-07T02:55:03.790Z,36.6
2018-03-07T03:01:18.244Z,35.8
2018-03-07T03:02:19.903Z,35.1
2018-03-07T03:04:11.812Z,37.7
2018-03-07T03:05:13.464Z,38.9
2018-03-07T03:06:15.095Z,45.0
2018-03-07T03:07:16.739Z,35.5
2018-03-07T03:08:18.385Z,41.3
2018-03-07T03:09:20.030Z,41.0
2018-03-07T03:10:21.679Z,35.9
2018-03-07T03:11:23.331Z,37.8
2018-03-07T03:12:24.984Z,36.8
2018-03-07T03:13:26.627Z,33.4
2018-03-07T03:14:28.279Z,40.2
2018-03-07T03:15:29.924Z,35.4
2018-03-07T03:16:31.566Z,42.3
2018-03-07T03:17:33.216Z,41.4
2018-03-07T03:18:34.876Z,42.4
2018-03-07T03:19:36.520Z,41.0
2018-03-07T03:20:38.167Z,42.1
2018-03-07T03:21:39.854Z,40.8
2018-03-07T03:22:41.495Z,45.5
2018-03-07T03:23:43.139Z,43.0
2018-03-07T03:24:44.778Z,40.7
2018-03-07T03:25:46.433Z,43.1
2018-03-07T03:26:48.079Z,39.7
2018-03-07T03:27:49.725Z,38.9
2018-03-07T03:28:51.370Z,40.5
2018-03-07T03:29:53.039Z,37.9
2018-03-07T03:30:54.695Z,37.4
2018-03-07T03:31:56.333Z,37.3
2018-03-07T03:32:57.977Z,42.7
2018-03-07T03:33:59.622Z,46.1
2018-03-07T03:35:01.270Z,39.4
2018-03-07T03:36:02.914Z,42.4
2018-03-07T03:37:04.557Z,36.8
2018-03-07T03:38:06.209Z,42.7
2018-03-07T03:39:07.876Z,45.2
2018-03-07T03:40:09.517Z,43.4
2018-03-07T03:41:11.160Z,42.4
2018-03-07T03:42:12.809Z,43.4
2018-03-07T03:43:14.460Z,40.1
2018-03-07T03:44:16.114Z,44.7
2018-03-07T03:45:17.756Z,43.4
2018-03-07T03:46:19.403Z,44.6
2018-03-07T03:47:21.056Z,42.8
2018-03-07T03:48:22.698Z,42.9
2018-03-07T03:49:24.340Z,46.9
2018-03-07T03:50:26.025Z,44.9
2018-03-07T03:51:27.666Z,44.6
2018-03-07T03:52:29.345Z,44.5
2018-03-07T03:53:30.987Z,43.8
2018-03-07T03:54:32.634Z,45.1
2018-03-07T03:55:34.282Z,44.4
2018-03-07T03:56:35.922Z,40.2
2018-03-07T03:57:37.566Z,40.1
2018-03-07T03:58:39.214Z,41.1
2018-03-07T03:59:40.872Z,40.5
2018-03-07T04:00:42.514Z,52.1
2018-03-07T04:01:44.162Z,50.4
2018-03-07T04:02:45.803Z,43.4
2018-03-07T04:03:47.446Z,50.6
2018-03-07T04:04:49.126Z,50.0
2018-03-07T04:05:50.771Z,52.2
2018-03-07T04:06:53.214Z,51.4
2018-03-07T04:07:54.857Z,53.9
2018-03-07T04:08:56.507Z,55.3
2018-03-07T04:09:58.158Z,52.5
2018-03-07T04:10:59.797Z,57.4
2018-03-07T04:12:01.444Z,48.9
2018-03-07T04:13:03.087Z,51.3
2018-03-07T04:14:04.727Z,57.9
2018-03-07T04:15:06.376Z,51.8
2018-03-07T04:16:08.023Z,58.9
2018-03-07T04:17:09.664Z,55.2
2018-03-07T04:18:11.312Z,54.3
2018-03-07T04:19:12.957Z,57.6
2018-03-07T04:20:14.599Z,57.0
2018-03-07T04:21:16.244Z,53.1
2018-03-07T04:22:17.893Z,59.4
2018-03-07T04:23:19.536Z,60.5
2018-03-07T04:24:21.182Z,58.5
2018-03-07T04:25:22.818Z,59.5
2018-03-07T04:26:24.469Z,53.9
2018-03-07T04:27:26.116Z,60.5
2018-03-07T04:28:27.770Z,63.9
2018-03-07T04:29:29.410Z,53.3
2018-03-07T04:30:31.064Z,49.9
2018-03-07T04:31:32.727Z,58.5
2018-03-07T04:32:34.374Z,54.8
2018-03-07T04:33:36.021Z,54.6
2018-03-07T04:34:37.675Z,51.1
2018-03-07T04:35:39.319Z,49.2
2018-03-07T04:36:40.970Z,50.2
2018-03-07T04:37:42.614Z,46.7
2018-03-07T04:38:44.261Z,50.1
2018-03-07T04:39:45.912Z,48.8
2018-03-07T04:40:47.555Z,52.0
2018-03-07T04:41:49.209Z,54.5
2018-03-07T04:42:50.852Z,56.3
2018-03-07T04:43:52.505Z,56.4
2018-03-07T04:44:54.150Z,59.2
2018-03-07T04:45:55.787Z,52.6
2018-03-07T04:46:57.440Z,56.2
2018-03-07T04:47:59.084Z,54.6
2018-03-07T04:49:00.813Z,58.4
2018-03-07T04:50:02.463Z,60.4
2018-03-07T04:51:04.110Z,61.6
2018-03-07T04:52:05.758Z,57.4
2018-03-07T04:53:07.405Z,60.6
2018-03-07T04:54:09.047Z,60.6
2018-03-07T04:55:10.698Z,61.2
2018-03-07T04:56:12.348Z,60.4
2018-03-07T04:57:13.988Z,55.9
2018-03-07T04:58:15.631Z,52.4
2018-03-07T04:59:17.275Z,62.4
2018-03-07T05:00:18.920Z,50.7
2018-03-07T05:01:20.569Z,60.0
2018-03-07T05:02:22.213Z,55.8
2018-03-07T05:03:23.885Z,52.8
2018-03-07T05:04:25.568Z,61.2
2018-03-07T05:05:27.178Z,58.6
2018-03-07T05:06:28.825Z,55.8
2018-03-07T05:07:30.469Z,59.3
2018-03-07T05:08:32.126Z,62.9
2018-03-07T05:09:33.766Z,66.3
2018-03-07T05:10:35.426Z,55.8
2018-03-07T05:11:37.061Z,60.3
2018-03-07T05:12:38.699Z,59.5
2018-03-07T05:13:40.347Z,61.1
2018-03-07T05:14:41.991Z,60.1
2018-03-07T05:15:43.681Z,64.3
2018-03-07T05:16:45.329Z,63.5
2018-03-07T05:17:46.970Z,54.1
2018-03-07T05:18:48.636Z,63.2
2018-03-07T05:19:50.263Z,65.4
2018-03-07T05:20:51.908Z,58.2
2018-03-07T05:21:53.548Z,59.0
2018-03-07T05:22:55.190Z,60.7
2018-03-07T05:23:56.844Z,61.3
2018-03-07T05:24:58.488Z,60.2
2018-03-07T05:26:00.149Z,62.1
2018-03-07T05:27:01.796Z,62.1
2018-03-07T05:28:03.445Z,60.6
2018-03-07T05:29:05.097Z,59.2
2018-03-07T05:30:06.742Z,60.0
2018-03-07T05:31:08.449Z,62.4
2018-03-07T05:32:10.088Z,62.2
2018-03-07T05:33:11.734Z,68.3
2018-03-07T05:34:13.389Z,65.5
2018-03-07T05:35:15.043Z,66.9
2018-03-07T05:36:16.676Z,65.0
2018-03-07T05:37:18.330Z,65.3
2018-03-07T05:38:19.977Z,65.8
2018-03-07T05:39:21.617Z,62.4
2018-03-07T05:40:23.268Z,64.1
2018-03-07T05:41:24.920Z,62.0
2018-03-07T05:42:26.580Z,61.0
2018-03-07T05:43:28.238Z,57.3
2018-03-07T05:44:29.887Z,62.6
2018-03-07T05:45:31.539Z,64.6
2018-03-07T05:46:33.194Z,60.6
2018-03-07T05:47:34.841Z,65.5
2018-03-07T05:48:36.489Z,60.7
2018-03-07T05:49:38.139Z,58.5
2018-03-07T05:50:39.784Z,65.2
2018-03-07T05:51:41.436Z,62.9
2018-03-07T05:52:43.082Z,57.6
2018-03-07T05:53:44.717Z,61.7
2018-03-07T05:54:46.369Z,63.2
2018-03-07T05:55:48.015Z,57.2
2018-03-07T05:56:49.720Z,58.7
2018-03-07T05:57:51.356Z,69.7
2018-03-07T05:58:53.017Z,60.6
2018-03-07T05:59:54.681Z,69.4
2018-03-07T06:00:56.318Z,61.8
2018-03-07T06:01:57.976Z,63.4
2018-03-07T06:02:59.620Z,64.8
2018-03-07T06:04:01.280Z,64.4
2018-03-07T06:05:02.944Z,62.0
2018-03-07T06:06:04.616Z,64.4
2018-03-07T06:07:06.256Z,61.1
2018-03-07T06:08:07.916Z,65.0
2018-03-07T06:09:09.559Z,63.5
2018-03-07T06:10:11.264Z,62.6
2018-03-07T06:11:12.918Z,65.9
2018-03-07T06:12:14.568Z,67.2
2018-03-07T06:13:16.220Z,72.6
2018-03-07T06:14:17.872Z,73.5
2018-03-07T06:15:19.531Z,76.0
2018-03-07T06:16:21.187Z,70.9
2018-03-07T06:17:22.829Z,72.5
2018-03-07T06:18:24.476Z,75.5
2018-03-07T06:19:26.124Z,71.0
2018-03-07T06:20:27.847Z,72.5
2018-03-07T06:21:29.428Z,65.3
2018-03-07T06:22:31.087Z,63.4
2018-03-07T06:23:32.745Z,68.2
2018-03-07T06:24:34.393Z,76.1
2018-03-07T06:25:36.050Z,79.2
2018-03-07T06:26:37.692Z,89.4
2018-03-07T06:27:39.337Z,84.1
2018-03-07T06:28:40.989Z,82.3
2018-03-07T06:29:42.631Z,83.9
2018-03-07T06:30:44.284Z,80.0
2018-03-07T06:31:45.925Z,75.4
2018-03-07T06:32:47.581Z,75.1
2018-03-07T06:33:49.228Z,75.1
2018-03-07T06:34:50.879Z,75.5
2018-03-07T06:35:52.532Z,82.9
2018-03-07T06:36:54.191Z,86.7
2018-03-07T06:37:55.842Z,78.2
2018-03-07T06:38:57.490Z,82.8
2018-03-07T06:39:59.153Z,88.8
2018-03-07T06:41:00.807Z,84.8
2018-03-07T06:42:02.454Z,85.1
2018-03-07T06:43:04.107Z,86.2
2018-03-07T06:44:05.753Z,86.6
2018-03-07T06:45:07.422Z,83.7
2018-03-07T06:46:09.065Z,86.9
2018-03-07T06:47:10.721Z,84.3
2018-03-07T06:48:12.375Z,87.1
2018-03-07T06:49:14.038Z,77.4
2018-03-07T06:50:15.734Z,78.2
2018-03-07T06:51:17.346Z,83.7
2018-03-07T06:52:19.007Z,81.7
2018-03-07T06:53:20.652Z,89.7
2018-03-07T06:54:22.306Z,81.6
2018-03-07T07:00:56.125Z,73.1
2018-03-07T07:01:57.772Z,89.1
2018-03-07T07:03:49.707Z,100.6
2018-03-07T07:04:51.360Z,106.6
2018-03-07T07:06:43.262Z,104.7
2018-03-07T07:07:44.922Z,102.2
2018-03-07T07:09:36.841Z,104.7
2018-03-07T07:10:38.497Z,97.5
2018-03-07T07:11:40.144Z,99.7
2018-03-07T07:12:41.804Z,102.6
2018-03-07T07:13:43.448Z,95.8
2018-03-07T07:14:45.104Z,99.0
2018-03-07T07:15:46.762Z,96.2
2018-03-07T07:16:48.428Z,94.6
2018-03-07T07:17:50.068Z,97.1
2018-03-07T07:18:51.806Z,93.4
2018-03-07T07:19:53.457Z,93.2
2018-03-07T07:20:55.107Z,86.0
2018-03-07T07:21:56.765Z,82.2
2018-03-07T07:22:58.426Z,90.9
2018-03-07T07:24:00.089Z,86.6
2018-03-07T07:25:01.730Z,89.6
2018-03-07T07:26:03.393Z,83.8
2018-03-07T07:27:05.061Z,84.8
2018-03-07T07:28:06.715Z,86.0
2018-03-07T07:29:08.385Z,85.0
2018-03-07T07:30:10.022Z,83.0
2018-03-07T07:31:11.679Z,87.2
2018-03-07T07:32:13.335Z,93.5
2018-03-07T07:33:15.000Z,87.7
2018-03-07T07:34:17.015Z,85.3
2018-03-07T07:35:18.663Z,88.2
2018-03-07T07:36:20.318Z,92.3
2018-03-07T07:37:22.002Z,94.1
2018-03-07T07:38:23.625Z,90.9
2018-03-07T07:39:25.276Z,92.3
2018-03-07T07:40:26.926Z,90.7
2018-03-07T07:41:28.574Z,89.2
2018-03-07T07:42:30.235Z,88.3
2018-03-07T07:43:31.884Z,91.9
2018-03-07T07:44:33.615Z,93.5
2018-03-07T07:45:35.271Z,96.8
2018-03-07T07:46:36.930Z,94.4
2018-03-07T07:47:38.584Z,90.3
2018-03-07T07:48:40.242Z,89.0
2018-03-07T07:49:42.125Z,86.4
2018-03-07T07:50:43.835Z,89.2
2018-03-07T07:51:45.439Z,89.0
2018-03-07T07:52:47.100Z,90.5
2018-03-07T07:53:48.752Z,88.6
2018-03-07T07:54:50.407Z,88.2
2018-03-07T07:55:52.194Z,91.1
2018-03-07T07:56:53.858Z,83.0
2018-03-07T07:57:55.528Z,91.4
2018-03-07T07:58:57.227Z,90.7
2018-03-07T07:59:58.863Z,92.4
2018-03-07T08:01:00.523Z,91.3
2018-03-07T08:02:02.175Z,86.4
2018-03-07T08:03:03.837Z,94.2
2018-03-07T08:04:05.491Z,90.4
2018-03-07T08:05:07.146Z,96.4
2018-03-07T08:06:08.801Z,89.3
2018-03-07T08:07:10.467Z,89.9
2018-03-07T08:08:12.167Z,97.3
2018-03-07T08:09:13.829Z,82.7
2018-03-07T08:10:15.486Z,89.9
2018-03-07T08:11:17.137Z,88.3
2018-03-07T08:12:18.794Z,82.1
2018-03-07T08:13:20.449Z,88.1
2018-03-07T08:14:22.123Z,85.7
2018-03-07T08:15:23.785Z,80.5
2018-03-07T08:16:25.439Z,81.9
2018-03-07T08:17:27.093Z,90.6
2018-03-07T08:18:28.752Z,85.6
2018-03-07T08:19:30.406Z,83.7
2018-03-07T08:20:32.066Z,86.2
2018-03-07T08:21:33.725Z,80.0
2018-03-07T08:22:35.377Z,84.6
2018-03-07T08:23:37.035Z,88.6
2018-03-07T08:24:38.702Z,92.4
2018-03-07T08:25:40.360Z,92.6
2018-03-07T08:26:42.010Z,89.1
2018-03-07T08:27:43.711Z,83.1
2018-03-07T08:28:45.331Z,87.8
2018-03-07T08:29:47.000Z,91.9
2018-03-07T08:30:48.652Z,87.0
2018-03-07T08:31:50.308Z,88.0
2018-03-07T08:32:51.960Z,86.1
2018-03-07T08:33:53.623Z,89.1
2018-03-07T08:34:55.293Z,88.8
2018-03-07T08:35:56.954Z,92.4
2018-03-07T08:36:58.622Z,84.9
2018-03-07T08:38:00.278Z,90.6
2018-03-07T08:39:01.944Z,88.8
2018-03-07T08:40:03.600Z,88.1
2018-03-07T08:41:05.259Z,85.0
2018-03-07T08:42:06.926Z,88.5
2018-03-07T08:43:08.581Z,86.5
2018-03-07T08:44:10.230Z,80.8
2018-03-07T08:45:11.906Z,89.9
2018-03-07T08:46:13.565Z,84.0
2018-03-07T08:47:15.246Z,87.0
2018-03-07T08:48:16.895Z,93.4
2018-03-07T08:49:18.561Z,87.1
2018-03-07T08:50:20.225Z,86.2
2018-03-07T08:51:21.886Z,93.6
2018-03-07T08:52:23.536Z,99.1
2018-03-07T08:53:25.196Z,91.6
2018-03-07T08:54:26.860Z,83.8
2018-03-07T08:55:28.510Z,98.8
2018-03-07T08:56:30.182Z,89.7
2018-03-07T08:57:31.836Z,89.1
2018-03-07T08:58:33.599Z,87.6
2018-03-07T08:59:35.253Z,90.8
2018-03-07T09:00:36.954Z,86.7
2018-03-07T09:01:38.588Z,95.9
2018-03-07T09:02:40.234Z,96.4
2018-03-07T09:03:41.898Z,103.7
2018-03-07T09:04:43.554Z,100.2
2018-03-07T09:05:45.208Z,108.9
2018-03-07T09:06:46.895Z,108.0
2018-03-07T09:07:48.556Z,107.8
2018-03-07T09:08:50.217Z,104.0
2018-03-07T09:09:51.888Z,100.9
2018-03-07T09:10:53.628Z,95.6
2018-03-07T09:11:55.304Z,99.5
2018-03-07T09:12:56.958Z,104.0
2018-03-07T09:13:58.620Z,96.0
2018-03-07T09:15:00.276Z,102.6
2018-03-07T09:16:01.934Z,105.0
2018-03-07T09:17:03.603Z,100.9
2018-03-07T09:18:05.268Z,103.7
2018-03-07T09:19:06.932Z,101.5
2018-03-07T09:20:08.586Z,110.7
2018-03-07T09:21:10.240Z,104.2
2018-03-07T09:22:11.900Z,101.2
2018-03-07T09:23:13.567Z,106.6
2018-03-07T09:24:15.228Z,99.8
2018-03-07T09:25:16.895Z,97.0
2018-03-07T09:26:18.550Z,99.6
2018-03-07T09:27:20.208Z,99.5
2018-03-07T09:28:21.868Z,97.6
2018-03-07T09:29:23.523Z,89.8
2018-03-07T09:30:25.199Z,88.1
2018-03-07T09:31:26.862Z,96.6
2018-03-07T09:32:28.523Z,93.9
2018-03-07T09:33:30.182Z,93.1
2018-03-07T09:34:31.834Z,98.1
2018-03-07T09:35:33.490Z,91.9
2018-03-07T09:36:35.150Z,98.9
2018-03-07T09:37:36.805Z,105.2
2018-03-07T09:38:38.458Z,101.8
2018-03-07T09:39:40.120Z,94.2
2018-03-07T09:40:41.789Z,105.3
2018-03-07T09:41:43.458Z,98.4
2018-03-07T09:42:45.108Z,92.0
2018-03-07T09:43:46.774Z,94.1
2018-03-07T09:44:48.432Z,88.1
2018-03-07T09:45:50.101Z,84.7
2018-03-07T09:46:51.777Z,93.1
2018-03-07T09:47:53.449Z,88.7
2018-03-07T09:48:55.245Z,83.6
2018-03-07T09:49:56.903Z,80.4
2018-03-07T09:50:58.558Z,79.2
2018-03-07T09:52:00.244Z,79.9
2018-03-07T09:53:01.898Z,80.8
2018-03-07T09:54:03.598Z,75.4
2018-03-07T09:55:05.264Z,70.8
2018-03-07T09:56:06.985Z,71.9
2018-03-07T09:57:08.605Z,72.5
2018-03-07T09:58:10.274Z,70.8
2018-03-07T09:59:11.938Z,67.3
2018-03-07T10:00:13.613Z,65.5
2018-03-07T10:01:15.277Z,63.8
2018-03-07T10:02:16.945Z,67.8
2018-03-07T10:03:18.607Z,66.3
2018-03-07T10:04:20.300Z,65.0
2018-03-07T10:05:21.967Z,66.8
2018-03-07T10:06:23.643Z,64.0
2018-03-07T10:07:25.322Z,64.5
2018-03-07T10:08:26.973Z,64.6
2018-03-07T10:09:28.643Z,64.5
2018-03-07T10:10:30.356Z,62.0
2018-03-07T10:11:32.010Z,61.9
2018-03-07T10:12:33.675Z,63.5
2018-03-07T10:13:38.859Z,66.5
2018-03-07T10:14:40.495Z,65.0
2018-03-07T10:15:42.159Z,63.8
2018-03-07T10:16:43.820Z,63.6
2018-03-07T10:17:45.490Z,64.0
2018-03-07T10:18:47.154Z,65.7
2018-03-07T10:19:48.809Z,67.2
2018-03-07T10:20:50.484Z,66.2
2018-03-07T10:21:52.134Z,67.7
2018-03-07T10:22:53.810Z,66.2
2018-03-07T10:23:55.461Z,68.4
2018-03-07T10:24:57.130Z,64.9
2018-03-07T10:25:58.786Z,64.4
2018-03-07T10:27:00.444Z,68.1
2018-03-07T10:28:02.108Z,69.9
2018-03-07T10:29:03.778Z,61.5
2018-03-07T10:30:05.450Z,59.0
2018-03-07T10:31:07.106Z,58.3
2018-03-07T10:32:08.777Z,50.2
2018-03-07T10:33:10.440Z,47.9
2018-03-07T10:34:12.110Z,44.6
2018-03-07T10:35:13.780Z,38.5
2018-03-07T10:36:15.447Z,31.5
2018-03-07T10:37:17.110Z,31.7
2018-03-07T10:38:18.780Z,28.5
2018-03-07T10:39:20.447Z,27.2
2018-03-07T10:40:22.122Z,25.3
2018-03-07T10:41:23.784Z,24.0
2018-03-07T10:42:25.453Z,22.1
2018-03-07T10:43:27.116Z,23.7
2018-03-07T10:44:28.803Z,20.0
2018-03-07T10:45:30.468Z,21.7
2018-03-07T10:46:37.728Z,24.2
2018-03-07T10:47:39.349Z,18.5
2018-03-07T10:48:41.186Z,20.2
2018-03-07T10:49:42.857Z,22.2
2018-03-07T10:50:44.529Z,22.0
2018-03-07T10:51:46.488Z,21.1
2018-03-07T10:52:53.039Z,21.2
2018-03-07T10:53:54.547Z,23.5
2018-03-07T10:54:56.206Z,22.4
2018-03-07T11:01:46.081Z,24.7
2018-03-07T11:02:48.312Z,27.8
2018-03-07T11:03:49.975Z,24.8
2018-03-07T11:04:52.242Z,24.7
2018-03-07T11:05:53.807Z,23.0
2018-03-07T11:06:55.678Z,25.7
2018-03-07T11:07:58.977Z,23.4
2018-03-07T11:09:00.643Z,24.6
2018-03-07T11:10:02.928Z,24.3
2018-03-07T11:11:04.592Z,25.8
2018-03-07T11:12:06.264Z,24.2
2018-03-07T11:13:07.919Z,26.2
2018-03-07T11:14:09.582Z,25.7
2018-03-07T11:15:11.246Z,27.3
2018-03-07T11:16:12.913Z,25.5
2018-03-07T11:17:15.066Z,28.7
2018-03-07T11:18:16.460Z,27.0
2018-03-07T11:19:18.124Z,27.6
2018-03-07T11:20:20.271Z,26.8
2018-03-07T11:21:21.930Z,28.0
2018-03-07T11:22:24.510Z,29.3
2018-03-07T11:23:26.169Z,25.8
2018-03-07T11:24:28.848Z,26.9
2018-03-07T11:25:30.503Z,26.8
2018-03-07T11:26:32.878Z,25.3
2018-03-07T11:27:34.621Z,28.7
2018-03-07T11:28:36.933Z,30.0
2018-03-07T11:29:38.599Z,28.6
2018-03-07T11:30:41.359Z,27.4
2018-03-07T11:31:43.027Z,29.1
2018-03-07T11:32:44.702Z,27.3
2018-03-07T11:33:46.512Z,33.9
2018-03-07T11:34:48.176Z,27.2
2018-03-07T11:35:49.838Z,28.6
2018-03-07T11:36:51.490Z,27.6
2018-03-07T11:37:53.161Z,27.7
2018-03-07T11:39:00.873Z,28.7
2018-03-07T11:40:02.554Z,28.8
2018-03-07T11:41:04.229Z,24.9
2018-03-07T11:42:05.900Z,24.8
2018-03-07T11:43:07.981Z,26.5
2018-03-07T11:44:10.072Z,23.8
2018-03-07T11:45:12.260Z,24.0
2018-03-07T11:46:13.699Z,24.3
2018-03-07T11:47:15.370Z,23.6
2018-03-07T11:48:17.021Z,24.1
2018-03-07T11:49:18.709Z,18.9
2018-03-07T11:50:20.369Z,22.3
2018-03-07T11:51:22.030Z,21.1
2018-03-07T11:52:23.695Z,19.8
2018-03-07T11:53:25.352Z,21.4
2018-03-07T11:54:27.007Z,22.5
2018-03-07T11:55:28.674Z,26.9
2018-03-07T11:56:30.334Z,21.1
2018-03-07T11:57:31.996Z,24.2
2018-03-07T11:58:33.659Z,27.6
2018-03-07T11:59:35.321Z,24.0
2018-03-07T12:00:36.980Z,23.2
2018-03-07T12:01:38.637Z,26.5
2018-03-07T12:02:40.305Z,23.2
2018-03-07T12:03:41.960Z,22.6
2018-03-07T12:04:43.623Z,25.5
2018-03-07T12:05:45.288Z,24.5
2018-03-07T12:06:46.947Z,25.3
2018-03-07T12:07:48.613Z,26.8
2018-03-07T12:08:50.271Z,23.9
2018-03-07T12:09:51.936Z,25.6
2018-03-07T12:10:53.596Z,25.0
2018-03-07T12:11:55.248Z,23.9
2018-03-07T12:12:56.945Z,23.4
2018-03-07T12:13:58.601Z,23.1
2018-03-07T12:15:00.263Z,23.3
2018-03-07T12:16:01.920Z,23.1
2018-03-07T12:17:03.576Z,26.1
2018-03-07T12:18:05.228Z,26.1
2018-03-07T12:19:06.891Z,22.7
2018-03-07T12:20:08.546Z,22.7
2018-03-07T12:21:10.204Z,22.0
2018-03-07T12:22:11.868Z,19.5
2018-03-07T12:23:13.521Z,25.0
2018-03-07T12:24:15.190Z,19.7
2018-03-07T12:25:16.848Z,16.1
2018-03-07T12:26:18.515Z,17.1
2018-03-07T12:27:20.175Z,15.6
2018-03-07T12:28:21.828Z,19.1
2018-03-07T12:29:23.484Z,16.0
2018-03-07T12:30:25.144Z,15.2
2018-03-07T12:31:26.807Z,17.3
2018-03-07T12:32:28.462Z,14.2
2018-03-07T12:33:30.126Z,15.0
2018-03-07T12:34:33.571Z,13.6
2018-03-07T12:35:35.232Z,10.4
2018-03-07T12:36:36.883Z,11.7
2018-03-07T12:37:38.554Z,11.4
2018-03-07T12:38:40.426Z,12.0
2018-03-07T12:39:42.099Z,12.2
2018-03-07T12:40:43.757Z,11.9
2018-03-07T12:41:45.462Z,11.6
2018-03-07T12:42:47.069Z,10.6
2018-03-07T12:43:48.722Z,11.2
2018-03-07T12:44:50.371Z,9.8
2018-03-07T12:45:52.038Z,10.0
2018-03-07T12:46:53.695Z,8.0
2018-03-07T12:47:55.354Z,9.5
2018-03-07T12:48:57.048Z,9.8
2018-03-07T12:49:58.737Z,8.0
2018-03-07T12:51:03.463Z,11.5
2018-03-07T12:52:06.700Z,10.2
2018-03-07T12:53:08.356Z,9.0
2018-03-07T12:54:10.023Z,7.8
2018-03-07T12:55:11.680Z,10.2
2018-03-07T12:56:13.347Z,12.6
2018-03-07T12:57:14.998Z,8.4
2018-03-07T12:58:16.659Z,10.0
2018-03-07T12:59:18.325Z,10.3
2018-03-07T13:00:19.984Z,8.3
2018-03-07T13:01:21.645Z,9.5
2018-03-07T13:02:23.306Z,8.9
2018-03-07T13:03:25.006Z,8.7
2018-03-07T13:04:26.671Z,9.1
2018-03-07T13:05:28.332Z,9.8
2018-03-07T13:06:29.982Z,9.4
2018-03-07T13:07:31.644Z,10.6
2018-03-07T13:08:33.297Z,9.7
2018-03-07T13:09:34.953Z,10.5
2018-03-07T13:10:36.617Z,10.3
2018-03-07T13:11:38.291Z,9.9
2018-03-07T13:12:39.950Z,10.3
2018-03-07T13:13:41.612Z,10.9
2018-03-07T13:14:43.270Z,9.3
2018-03-07T13:15:44.932Z,11.3
2018-03-07T13:16:46.590Z,11.7
2018-03-07T13:17:48.251Z,11.9
2018-03-07T13:18:49.916Z,11.7
2018-03-07T13:19:51.571Z,12.3
2018-03-07T13:20:53.236Z,13.0
2018-03-07T13:21:54.886Z,11.4
2018-03-07T13:22:56.544Z,14.3
2018-03-07T13:23:58.220Z,13.0
2018-03-07T13:24:59.867Z,12.9
2018-03-07T13:26:01.611Z,11.7
2018-03-07T13:27:03.270Z,10.9
2018-03-07T13:28:04.916Z,10.5
2018-03-07T13:29:06.577Z,9.9
2018-03-07T13:30:08.243Z,11.0
2018-03-07T13:31:09.914Z,11.2
2018-03-07T13:32:11.651Z,9.6
2018-03-07T13:33:13.304Z,11.6
2018-03-07T13:34:14.966Z,12.0
2018-03-07T13:35:16.616Z,11.3
2018-03-07T13:36:18.275Z,10.2
2018-03-07T13:37:19.947Z,11.1
2018-03-07T13:38:21.614Z,9.7
2018-03-07T13:39:23.265Z,10.9
2018-03-07T13:40:24.940Z,12.3
2018-03-07T13:41:26.593Z,9.2
2018-03-07T13:42:28.250Z,11.3
2018-03-07T13:43:29.911Z,9.8
2018-03-07T13:44:31.580Z,8.6
2018-03-07T13:45:33.304Z,8.9
2018-03-07T13:46:34.965Z,11.2
2018-03-07T13:47:36.617Z,12.0
2018-03-07T13:48:38.284Z,12.2
2018-03-07T13:49:40.921Z,13.6
2018-03-07T13:50:42.581Z,11.6
2018-03-07T13:51:44.236Z,12.1
2018-03-07T13:52:47.005Z,12.4
2018-03-07T13:53:48.670Z,13.6
2018-03-07T13:54:50.429Z,11.7
2018-03-07T13:55:51.960Z,10.0
2018-03-07T13:56:53.623Z,12.8
2018-03-07T13:57:55.286Z,11.3
2018-03-07T13:58:56.955Z,9.6
2018-03-07T13:59:58.608Z,9.1
2018-03-07T14:01:00.302Z,11.5